Time;durP1;ratioP1;P1;durP2;ratioP2;P2;SDS_P1;SDS_P2;PMS_P1;PMS_P2;Temp;Humidity;BMP_temperature;BMP_pressure;BME280_temperature;BME280_humidity;BME280_pressure;Samples;Min_cycle;Max_cycle;Signal;HPM_P1;HPM_P2
2024/02/21 00:00:11;;;;;;;;;14.33;12.67;;;;;15.16;100.00;101955.16;2104885;27;46187;-51
2024/02/21 00:01:16;;;;;;;;;14.67;14.00;;;;;15.17;100.00;101954.22;2107238;27;47214;-50
2024/02/21 00:02:16;;;;;;;;;14.50;14.25;;;;;15.15;100.00;101948.03;2107497;27;46986;-52
2024/02/21 00:03:17;;;;;;;;;14.00;14.00;;;;;15.13;100.00;101943.63;2107343;27;46581;-51
2024/02/21 00:04:17;;;;;;;;;16.67;16.67;;;;;15.12;100.00;101942.75;2106992;27;46271;-50
2024/02/21 00:05:17;;;;;;;;;16.00;14.67;;;;;15.14;100.00;101942.72;2106602;27;46669;-51
2024/02/21 00:06:17;;;;;;;;;19.00;17.67;;;;;15.15;100.00;101953.38;2093167;28;46693;-52
2024/02/21 00:07:18;;;;;;;;;16.75;15.25;;;;;15.14;100.00;101951.63;2093880;28;46624;-52
2024/02/21 00:08:18;;;;;;;;;15.33;13.33;;;;;15.16;100.00;101948.91;2105932;27;46675;-54
2024/02/21 00:09:19;;;;;;;;;14.75;14.00;;;;;15.15;100.00;101953.38;2107943;27;46340;-54
2024/02/21 00:10:19;;;;;;;;;15.75;14.75;;;;;15.14;100.00;101958.78;2107440;27;46557;-54
2024/02/21 00:11:20;;;;;;;;;19.25;17.00;;;;;15.13;100.00;101951.66;2106932;27;46557;-52
2024/02/21 00:12:20;;;;;;;;;15.67;14.67;;;;;15.10;100.00;101952.59;2106296;27;46636;-50
2024/02/21 00:13:21;;;;;;;;;16.33;16.33;;;;;15.09;100.00;101940.13;2106109;27;46620;-49
2024/02/21 00:14:21;;;;;;;;;15.00;15.00;;;;;15.12;100.00;101941.84;2107306;27;46696;-52
2024/02/21 00:15:22;;;;;;;;;15.67;13.00;;;;;15.11;100.00;101945.44;2107042;27;46209;-53
2024/02/21 00:16:22;;;;;;;;;17.75;15.00;;;;;15.13;100.00;101949.00;2107329;27;46746;-54
2024/02/21 00:17:23;;;;;;;;;15.33;14.00;;;;;15.09;100.00;101944.59;2107272;27;45800;-50
2024/02/21 00:18:23;;;;;;;;;15.33;15.33;;;;;15.07;100.00;101946.44;2105477;27;46181;-52
2024/02/21 00:19:23;;;;;;;;;14.00;13.33;;;;;15.05;100.00;101958.94;2088149;28;46546;-51
2024/02/21 00:20:25;;;;;;;;;19.00;19.00;;;;;15.06;100.00;101958.03;2088828;28;46461;-52
2024/02/21 00:21:25;;;;;;;;;19.00;17.00;;;;;15.04;100.00;101954.50;2106481;27;46726;-52
2024/02/21 00:22:28;;;;;;;;;15.67;14.00;;;;;15.05;100.00;101950.94;2106999;27;46349;-52
2024/02/21 00:23:29;;;;;;;;;19.00;17.50;;;;;15.06;100.00;101948.22;2097923;28;46709;-51
2024/02/21 00:24:29;;;;;;;;;16.67;13.33;;;;;15.05;100.00;101933.09;2098128;27;46525;-51
2024/02/21 00:25:29;;;;;;;;;15.67;15.00;;;;;15.05;100.00;101932.22;2106550;27;46045;-50
2024/02/21 00:26:30;;;;;;;;;14.67;13.33;;;;;15.03;100.00;101929.56;2106997;27;46706;-51
2024/02/21 00:27:32;;;;;;;;;15.00;15.00;;;;;15.02;100.00;101935.84;2107066;27;46630;-48
2024/02/21 00:28:32;;;;;;;;;16.75;16.75;;;;;15.03;100.00;101932.25;2106754;27;46695;-50
2024/02/21 00:29:34;;;;;;;;;15.00;15.00;;;;;15.02;100.00;101936.72;2107223;27;46847;-52
2024/02/21 00:30:34;;;;;;;;;13.25;13.25;;;;;15.04;100.00;101944.69;2105672;27;46496;-52
2024/02/21 00:31:34;;;;;;;;;14.33;14.00;;;;;15.06;100.00;101942.00;2096870;28;46295;-50
2024/02/21 00:32:35;;;;;;;;;13.00;13.00;;;;;15.14;100.00;101937.38;2097157;28;46217;-52
2024/02/21 00:33:35;;;;;;;;;17.33;16.00;;;;;15.06;100.00;101928.63;2106332;27;46521;-51
2024/02/21 00:34:35;;;;;;;;;16.25;15.25;;;;;15.08;100.00;101929.47;2104763;27;46361;-49
2024/02/21 00:35:36;;;;;;;;;14.67;12.67;;;;;15.10;100.00;101928.53;2108943;27;47076;-53
2024/02/21 00:36:36;;;;;;;;;20.50;18.25;;;;;15.07;100.00;101919.69;2108053;27;46580;-50
2024/02/21 00:37:37;;;;;;;;;18.00;15.00;;;;;15.04;100.00;101925.09;2094212;28;46397;-52
2024/02/21 00:38:37;;;;;;;;;16.33;14.67;;;;;15.05;100.00;101918.84;2094550;28;46782;-49
2024/02/21 00:39:37;;;;;;;;;16.67;15.67;;;;;15.02;100.00;101922.47;2108600;27;45018;-52
2024/02/21 00:40:38;;;;;;;;;16.33;14.33;;;;;15.04;100.00;101922.44;2096161;28;45034;-52
2024/02/21 00:41:38;;;;;;;;;12.00;12.00;;;;;15.02;100.00;101927.81;2095623;28;46474;-54
2024/02/21 00:42:38;;;;;;;;;15.33;13.67;;;;;15.01;100.00;101916.25;2108059;27;46984;-51
2024/02/21 00:43:38;;;;;;;;;13.00;13.00;;;;;15.01;100.00;101910.91;2104324;27;46722;-51
2024/02/21 00:44:39;;;;;;;;;15.67;12.33;;;;;14.99;100.00;101918.06;2107936;27;46484;-51
2024/02/21 00:45:39;;;;;;;;;16.00;14.33;;;;;14.97;100.00;101911.84;2108245;27;46214;-52
2024/02/21 00:46:39;;;;;;;;;13.33;12.00;;;;;14.97;100.00;101900.28;2108437;27;46507;-53
2024/02/21 00:47:40;;;;;;;;;16.33;14.67;;;;;14.97;100.00;101895.81;2107927;27;46088;-52
2024/02/21 00:48:40;;;;;;;;;15.00;15.00;;;;;14.97;100.00;101886.91;2108697;27;46375;-51
2024/02/21 00:49:40;;;;;;;;;14.67;13.00;;;;;15.01;100.00;101899.31;2108590;27;46629;-52
2024/02/21 00:50:41;;;;;;;;;13.33;12.67;;;;;15.00;100.00;101893.09;2108619;27;46273;-50
2024/02/21 00:51:41;;;;;;;;;11.33;11.00;;;;;14.99;100.00;101898.44;2106412;27;48815;-52
2024/02/21 00:52:42;;;;;;;;;14.00;13.00;;;;;14.99;100.00;101891.34;2108440;27;45572;-53
2024/02/21 00:53:42;;;;;;;;;13.50;13.50;;;;;14.97;100.00;101885.13;2108146;27;46751;-52
2024/02/21 00:54:43;;;;;;;;;14.33;13.00;;;;;14.96;100.00;101882.50;2108347;27;46711;-51
2024/02/21 00:55:43;;;;;;;;;13.67;13.67;;;;;14.97;100.00;101878.91;2109007;27;46253;-53
2024/02/21 00:56:44;;;;;;;;;14.67;13.00;;;;;14.95;100.00;101878.94;2108579;27;47295;-51
2024/02/21 00:57:44;;;;;;;;;18.50;15.25;;;;;14.99;100.00;101885.09;2108441;27;46601;-51
2024/02/21 00:58:44;;;;;;;;;15.00;13.00;;;;;14.98;100.00;101886.88;2108275;27;45564;-48
2024/02/21 00:59:45;;;;;;;;;17.33;15.33;;;;;14.95;100.00;101888.75;2107452;27;46799;-51
2024/02/21 01:00:45;;;;;;;;;17.00;14.00;;;;;14.95;100.00;101888.75;2106979;27;46597;-48
2024/02/21 01:01:45;;;;;;;;;14.33;13.33;;;;;14.93;100.00;101883.44;2108799;27;46744;-51
2024/02/21 01:02:46;;;;;;;;;10.00;10.00;;;;;14.90;100.00;101874.63;2108208;27;46689;-50
2024/02/21 01:03:46;;;;;;;;;14.00;13.33;;;;;14.87;100.00;101866.66;2108328;27;46905;-51
2024/02/21 01:04:46;;;;;;;;;17.33;14.67;;;;;14.87;100.00;101874.69;2107455;27;46600;-51
2024/02/21 01:05:47;;;;;;;;;20.33;18.33;;;;;14.85;100.00;101864.00;2108429;27;46425;-48
2024/02/21 01:06:47;;;;;;;;;23.33;19.00;;;;;14.85;100.00;101864.00;2108093;27;46549;-51
2024/02/21 01:07:47;;;;;;;;;13.00;13.00;;;;;14.86;100.00;101856.84;2107963;27;46536;-49
2024/02/21 01:08:48;;;;;;;;;16.00;13.00;;;;;14.87;100.00;101864.00;2092581;28;46286;-51
2024/02/21 01:09:48;;;;;;;;;13.67;13.33;;;;;14.84;100.00;101870.25;2085380;28;46544;-49
2024/02/21 01:10:48;;;;;;;;;16.33;16.00;;;;;14.85;100.00;101868.47;2098974;28;46778;-48
2024/02/21 01:11:49;;;;;;;;;15.67;14.00;;;;;14.84;100.00;101872.94;2108457;27;47083;-51
2024/02/21 01:12:49;;;;;;;;;15.00;15.00;;;;;14.82;100.00;101866.75;2108502;27;46146;-50
2024/02/21 01:13:49;;;;;;;;;12.67;12.67;;;;;14.86;100.00;101862.19;2108286;27;47008;-53
2024/02/21 01:14:50;;;;;;;;;14.67;13.67;;;;;14.85;100.00;101855.97;2108390;27;46557;-49
2024/02/21 01:15:50;;;;;;;;;20.00;16.00;;;;;14.84;100.00;101856.91;2108533;27;46586;-48
2024/02/21 01:16:50;;;;;;;;;16.67;16.67;;;;;14.87;100.00;101853.31;2108029;27;46747;-52
2024/02/21 01:17:54;;;;;;;;;14.67;13.33;;;;;14.85;100.00;101841.75;2091035;28;45605;-52
2024/02/21 01:18:54;;;;;;;;;14.00;12.00;;;;;14.87;100.00;101840.81;2090622;27;46624;-51
2024/02/21 01:19:55;;;;;;;;;15.00;14.67;;;;;14.76;100.00;101833.94;2107837;27;46293;-48
2024/02/21 01:20:55;;;;;;;;;14.67;13.00;;;;;14.78;100.00;101838.34;2108905;27;46539;-53
2024/02/21 01:21:56;;;;;;;;;13.67;11.00;;;;;14.93;100.00;101843.34;2107132;27;46613;-48
2024/02/21 01:22:56;;;;;;;;;15.33;13.67;;;;;14.92;100.00;101838.91;2107555;27;46492;-52
2024/02/21 01:23:56;;;;;;;;;15.33;15.00;;;;;14.93;100.00;101843.34;2106712;27;48004;-51
2024/02/21 01:24:57;;;;;;;;;16.67;16.67;;;;;14.87;100.00;101839.94;2107613;27;46583;-50
2024/02/21 01:25:57;;;;;;;;;13.67;12.67;;;;;14.80;100.00;101838.28;2108809;27;46549;-49
2024/02/21 01:26:57;;;;;;;;;18.33;15.00;;;;;14.77;100.00;101841.03;2107916;27;46299;-52
2024/02/21 01:27:58;;;;;;;;;13.00;13.00;;;;;14.73;100.00;101843.75;2108811;27;46387;-51
2024/02/21 01:28:58;;;;;;;;;11.33;11.33;;;;;14.66;100.00;101833.25;2108161;27;46691;-52
2024/02/21 01:29:58;;;;;;;;;15.67;14.00;;;;;14.63;100.00;101817.28;2107618;27;46684;-52
2024/02/21 01:30:59;;;;;;;;;17.00;15.33;;;;;14.63;100.00;101822.63;2108580;27;46654;-51
2024/02/21 01:31:59;;;;;;;;;16.00;13.33;;;;;14.56;100.00;101820.97;2109456;27;46132;-50
2024/02/21 01:33:00;;;;;;;;;15.33;14.33;;;;;14.57;100.00;101833.44;2112610;27;46287;-51
2024/02/21 01:34:00;;;;;;;;;14.67;9.00;;;;;14.58;100.00;101840.53;2112714;27;46256;-49
2024/02/21 01:35:01;;;;;;;;;15.00;14.00;;;;;14.54;100.00;101844.19;2112293;27;46360;-50
2024/02/21 01:36:06;;;;;;;;;15.33;14.33;;;;;14.59;100.00;101850.31;2112071;27;46459;-53
2024/02/21 01:37:07;;;;;;;;;13.25;12.50;;;;;14.64;100.00;101851.09;2086382;28;46637;-48
2024/02/21 01:38:07;;;;;;;;;14.33;13.33;;;;;14.98;100.00;101845.91;2086162;27;46174;-49
2024/02/21 01:39:08;;;;;;;;;14.33;12.33;;;;;15.00;100.00;101847.66;2111515;27;46479;-49
2024/02/21 01:40:09;;;;;;;;;10.67;10.67;;;;;15.12;100.00;101841.16;2112303;27;46502;-52
2024/02/21 01:41:09;;;;;;;;;17.00;14.67;;;;;15.10;100.00;101839.41;2112541;27;46271;-51
2024/02/21 01:42:09;;;;;;;;;13.33;13.33;;;;;15.04;100.00;101835.09;2110243;27;46650;-50
2024/02/21 01:43:18;;;;;;;;;16.33;14.33;;;;;15.18;100.00;101832.09;2112612;27;46703;-51
2024/02/21 01:44:19;;;;;;;;;16.50;15.25;;;;;14.96;100.00;101829.91;2112078;27;47328;-51
2024/02/21 01:45:19;;;;;;;;;14.00;14.00;;;;;14.90;100.00;101834.53;2112517;27;46256;-49
2024/02/21 01:46:19;;;;;;;;;16.00;14.00;;;;;14.99;100.00;101831.63;2111645;27;46352;-52
2024/02/21 01:47:20;;;;;;;;;15.67;14.33;;;;;15.08;100.00;101833.22;2112220;27;46606;-52
2024/02/21 01:48:22;;;;;;;;;14.67;13.67;;;;;15.08;100.00;101828.75;2107658;27;46260;-52
2024/02/21 01:49:22;;;;;;;;;16.50;15.00;;;;;15.05;100.00;101820.81;2107435;27;46393;-49
2024/02/21 01:50:23;;;;;;;;;12.00;12.00;;;;;15.07;100.00;101826.13;2111796;27;46234;-53
2024/02/21 01:51:24;;;;;;;;;15.75;14.50;;;;;15.00;100.00;101822.72;2099879;28;46760;-52
2024/02/21 01:52:25;;;;;;;;;15.50;14.25;;;;;15.00;100.00;101830.75;2099758;27;46779;-51
2024/02/21 01:53:30;;;;;;;;;12.33;12.33;;;;;15.01;100.00;101833.38;2112670;27;46615;-48
2024/02/21 01:54:31;;;;;;;;;14.25;14.00;;;;;15.03;100.00;101819.97;2112711;27;46365;-51
2024/02/21 01:55:32;;;;;;;;;15.00;13.75;;;;;15.05;100.00;101827.94;2111500;27;46597;-50
2024/02/21 01:56:33;;;;;;;;;12.33;12.33;;;;;15.04;100.00;101824.41;2112484;27;46362;-47
2024/02/21 01:57:33;;;;;;;;;21.00;16.00;;;;;15.06;100.00;101811.00;2112381;27;46511;-47
2024/02/21 01:58:37;;;;;;;;;18.67;14.33;;;;;15.05;100.00;101809.25;2109888;27;46652;-50
2024/02/21 01:59:38;;;;;;;;;15.00;14.00;;;;;15.10;100.00;101808.19;2112179;27;46612;-50
2024/02/21 02:00:43;;;;;;;;;14.00;12.75;;;;;15.23;100.00;101798.97;2111572;27;46414;-50
2024/02/21 02:01:44;;;;;;;;;12.25;12.00;;;;;15.14;100.00;101790.31;2112185;27;46861;-51
2024/02/21 02:02:45;;;;;;;;;15.50;12.75;;;;;15.17;100.00;101791.13;2112542;27;46356;-51
2024/02/21 02:03:46;;;;;;;;;14.33;12.00;;;;;15.09;100.00;101786.84;2099206;28;46595;-52
2024/02/21 02:04:47;;;;;;;;;17.25;16.50;;;;;15.04;100.00;101792.31;2099257;28;46548;-52
2024/02/21 02:05:49;;;;;;;;;12.67;12.67;;;;;15.07;100.00;101780.66;2111864;27;46540;-53
2024/02/21 02:06:50;;;;;;;;;14.75;14.50;;;;;15.03;100.00;101779.88;2112357;27;46195;-51
2024/02/21 02:07:51;;;;;;;;;16.00;15.50;;;;;14.99;100.00;101776.41;2112076;27;46040;-53
2024/02/21 02:08:52;;;;;;;;;16.33;14.67;;;;;15.05;100.00;101777.16;2112006;27;46380;-49
2024/02/21 02:09:52;;;;;;;;;14.75;13.50;;;;;15.07;100.00;101776.19;2098982;28;46582;-49
2024/02/21 02:10:53;;;;;;;;;15.33;14.33;;;;;15.11;100.00;101779.66;2098775;28;46715;-52
2024/02/21 02:11:53;;;;;;;;;15.33;15.00;;;;;15.08;100.00;101774.41;2111568;27;46701;-52
2024/02/21 02:12:54;;;;;;;;;17.00;16.33;;;;;15.06;100.00;101768.22;2111405;27;46678;-50
2024/02/21 02:13:54;;;;;;;;;7.00;7.00;;;;;15.04;100.00;101770.06;2109918;27;47403;-49
2024/02/21 02:15:04;;;;;;;;;15.67;13.67;;;;;15.11;100.00;101764.50;2112749;27;46279;-49
2024/02/21 02:16:05;;;;;;;;;14.50;14.25;;;;;14.98;100.00;101758.56;2112297;27;46906;-48
2024/02/21 02:17:05;;;;;;;;;15.67;15.00;;;;;14.96;100.00;101760.41;2093367;28;46770;-52
2024/02/21 02:18:05;;;;;;;;;14.67;14.00;;;;;14.98;100.00;101755.03;2093912;28;46818;-51
2024/02/21 02:19:06;;;;;;;;;11.67;10.67;;;;;15.00;100.00;101756.78;2100059;28;46282;-52
2024/02/21 02:20:07;;;;;;;;;15.00;12.50;;;;;14.99;100.00;101749.66;2098795;28;46581;-51
2024/02/21 02:21:13;;;;;;;;;13.75;13.50;;;;;14.93;100.00;101749.78;2111515;27;46655;-53
2024/02/21 02:22:22;;;;;;;;;13.25;12.75;;;;;14.89;100.00;101748.13;2111689;27;47044;-50
2024/02/21 02:23:30;;;;;;;;;13.75;12.00;;;;;15.05;100.00;101750.44;2112220;27;46956;-50
2024/02/21 02:24:30;;;;;;;;;15.50;15.00;;;;;15.07;100.00;101749.47;2111506;27;46750;-51
2024/02/21 02:25:31;;;;;;;;;13.67;13.33;;;;;15.04;100.00;101752.22;2090293;28;46820;-48
2024/02/21 02:26:31;;;;;;;;;17.33;15.00;;;;;15.01;100.00;101750.50;2089914;28;46439;-50
2024/02/21 02:27:31;;;;;;;;;14.33;13.33;;;;;15.00;100.00;101748.75;2112447;27;46777;-50
2024/02/21 02:28:32;;;;;;;;;10.33;8.00;;;;;14.96;100.00;101741.69;2111388;27;46256;-50
2024/02/21 02:29:32;;;;;;;;;12.33;12.33;;;;;14.95;100.00;101753.31;2111525;27;46345;-49
2024/02/21 02:30:34;;;;;;;;;17.67;15.67;;;;;15.01;100.00;101737.13;2111928;27;46963;-52
2024/02/21 02:31:35;;;;;;;;;13.25;13.25;;;;;15.15;100.00;101734.13;2109661;27;46839;-51
2024/02/21 02:32:35;;;;;;;;;16.00;15.00;;;;;15.15;100.00;101743.94;2107582;27;46503;-50
2024/02/21 02:33:36;;;;;;;;;14.00;13.67;;;;;15.08;100.00;101745.00;2108064;27;45685;-49
2024/02/21 02:34:36;;;;;;;;;16.00;16.00;;;;;15.09;100.00;101749.44;2107628;27;45966;-48
2024/02/21 02:35:36;;;;;;;;;15.33;14.67;;;;;15.09;100.00;101746.75;2107233;27;46726;-52
2024/02/21 02:36:37;;;;;;;;;16.33;13.00;;;;;15.09;100.00;101744.06;2106841;27;46155;-50
2024/02/21 02:37:38;;;;;;;;;12.00;10.33;;;;;15.06;100.00;101746.84;2107339;27;46776;-51
2024/02/21 02:38:39;;;;;;;;;13.75;12.00;;;;;15.33;100.00;101740.81;2106971;27;46414;-51
2024/02/21 02:39:39;;;;;;;;;16.00;15.00;;;;;15.43;100.00;101739.66;2106943;27;45941;-53
2024/02/21 02:40:42;;;;;;;;;16.00;13.33;;;;;15.35;100.00;101735.41;2108328;27;46740;-50
2024/02/21 02:41:42;;;;;;;;;14.75;14.00;;;;;15.35;100.00;101730.94;2107476;27;46503;-52
2024/02/21 02:42:43;;;;;;;;;12.00;12.00;;;;;15.35;100.00;101730.06;2108118;27;45978;-51
2024/02/21 02:43:43;;;;;;;;;15.67;13.67;;;;;15.39;100.00;101743.34;2103672;27;46797;-49
2024/02/21 02:44:43;;;;;;;;;14.67;14.67;;;;;15.40;100.00;101744.22;2106196;27;46585;-48
2024/02/21 02:45:43;;;;;;;;;16.67;14.67;;;;;15.31;100.00;101735.50;2107822;27;46211;-49
2024/02/21 02:46:44;;;;;;;;;19.00;16.00;;;;;15.34;100.00;101723.84;2106210;27;46517;-50
2024/02/21 02:47:46;;;;;;;;;15.67;14.67;;;;;15.38;100.00;101725.53;2105875;27;47136;-50
2024/02/21 02:48:46;;;;;;;;;17.00;15.50;;;;;15.37;100.00;101725.56;2107327;27;46399;-50
2024/02/21 02:49:50;;;;;;;;;19.67;16.67;;;;;15.37;100.00;101718.41;2102183;27;45025;-49
2024/02/21 02:50:50;;;;;;;;;17.25;14.00;;;;;15.24;100.00;101717.84;2107518;27;46461;-50
2024/02/21 02:51:51;;;;;;;;;17.00;16.67;;;;;15.24;100.00;101719.63;2108264;27;46579;-49
2024/02/21 02:52:52;;;;;;;;;15.33;13.00;;;;;15.22;100.00;101706.31;2106982;27;46091;-51
2024/02/21 02:53:52;;;;;;;;;16.75;16.00;;;;;15.19;100.00;101714.41;2107441;27;46668;-52
2024/02/21 02:54:55;;;;;;;;;16.33;14.00;;;;;15.19;100.00;101716.22;2107227;27;46376;-50
2024/02/21 02:55:55;;;;;;;;;13.50;13.50;;;;;15.16;100.00;101714.50;2106686;27;46630;-50
2024/02/21 02:56:56;;;;;;;;;19.00;15.33;;;;;15.24;100.00;101709.81;2107121;27;46645;-51
2024/02/21 02:57:57;;;;;;;;;15.33;13.67;;;;;15.23;100.00;101710.72;2085393;28;46462;-49
2024/02/21 02:58:57;;;;;;;;;15.67;13.67;;;;;15.26;100.00;101716.03;2085746;28;46684;-51
2024/02/21 02:59:57;;;;;;;;;12.33;12.33;;;;;15.24;100.00;101701.78;2108115;27;46070;-51
2024/02/21 03:00:58;;;;;;;;;11.33;10.67;;;;;15.27;100.00;101704.41;2106660;27;46283;-50
2024/02/21 03:01:58;;;;;;;;;13.67;13.67;;;;;15.19;100.00;101697.50;2108137;27;46807;-48
2024/02/21 03:02:58;;;;;;;;;17.33;14.67;;;;;15.19;100.00;101695.69;2107934;27;46510;-49
2024/02/21 03:03:59;;;;;;;;;15.67;15.67;;;;;15.15;100.00;101688.69;2106961;27;45930;-48
2024/02/21 03:04:59;;;;;;;;;15.00;13.67;;;;;15.24;100.00;101679.53;2105418;27;46739;-49
2024/02/21 03:05:59;;;;;;;;;12.00;11.00;;;;;15.27;100.00;101679.47;2107028;27;46690;-52
2024/02/21 03:06:59;;;;;;;;;18.33;15.67;;;;;15.31;100.00;101674.00;2106966;27;46332;-52
2024/02/21 03:08:00;;;;;;;;;15.00;13.00;;;;;15.19;100.00;101686.78;2107747;27;46654;-52
2024/02/21 03:09:00;;;;;;;;;17.33;14.33;;;;;15.16;100.00;101684.22;2105908;27;46442;-50
2024/02/21 03:10:01;;;;;;;;;14.33;14.00;;;;;15.31;100.00;101683.81;2107069;27;46743;-52
2024/02/21 03:11:01;;;;;;;;;15.67;14.33;;;;;15.28;100.00;101684.78;2107161;27;46252;-52
2024/02/21 03:12:05;;;;;;;;;18.33;12.00;;;;;15.18;100.00;101682.38;2107340;27;46799;-53
2024/02/21 03:13:05;;;;;;;;;15.25;15.25;;;;;15.15;100.00;101669.09;2107065;27;46321;-52
2024/02/21 03:14:05;;;;;;;;;13.00;13.00;;;;;15.14;100.00;101667.31;2107636;27;46150;-52
2024/02/21 03:15:06;;;;;;;;;15.00;14.67;;;;;15.08;100.00;101667.47;2107997;27;46259;-50
2024/02/21 03:16:06;;;;;;;;;15.50;13.50;;;;;15.06;100.00;101658.63;2107551;27;46428;-52
2024/02/21 03:17:07;;;;;;;;;18.00;17.00;;;;;15.06;100.00;101659.50;2106027;27;45928;-53
2024/02/21 03:18:07;;;;;;;;;17.33;13.33;;;;;15.01;100.00;101648.06;2107628;27;46405;-53
2024/02/21 03:19:07;;;;;;;;;15.67;14.00;;;;;15.15;100.00;101648.56;2098739;28;46673;-52
2024/02/21 03:20:09;;;;;;;;;16.00;16.00;;;;;15.24;100.00;101653.66;2096244;28;46504;-52
2024/02/21 03:21:09;;;;;;;;;13.00;13.00;;;;;15.31;100.00;101659.75;2107044;27;46597;-52
2024/02/21 03:22:10;;;;;;;;;9.67;9.67;;;;;15.19;100.00;101654.72;2107270;27;46769;-53
2024/02/21 03:23:10;;;;;;;;;15.33;15.33;;;;;14.98;100.00;101657.00;2107045;27;46912;-53
2024/02/21 03:24:10;;;;;;;;;15.67;15.00;;;;;15.14;100.00;101657.50;2101650;28;46638;-52
2024/02/21 03:25:12;;;;;;;;;15.00;14.33;;;;;14.93;100.00;101656.25;2100259;28;46272;-53
2024/02/21 03:26:16;;;;;;;;;13.25;13.25;;;;;15.07;100.00;101642.53;2106994;27;46801;-52
2024/02/21 03:27:17;;;;;;;;;14.50;13.00;;;;;14.87;100.00;101635.03;2107686;27;46552;-51
2024/02/21 03:28:17;;;;;;;;;15.00;14.67;;;;;15.06;100.00;101634.56;2106508;27;46297;-50
2024/02/21 03:29:17;;;;;;;;;11.00;11.00;;;;;15.02;100.00;101631.09;2107190;27;46778;-51
2024/02/21 03:30:18;;;;;;;;;17.67;15.33;;;;;15.03;100.00;101627.50;2107505;27;45774;-54
2024/02/21 03:31:18;;;;;;;;;13.33;13.00;;;;;14.85;100.00;101628.81;2107297;27;46605;-52
2024/02/21 03:32:19;;;;;;;;;14.00;13.00;;;;;14.91;100.00;101619.78;2109800;27;46536;-50
2024/02/21 03:33:20;;;;;;;;;16.33;13.67;;;;;14.85;100.00;101625.28;2110971;27;46705;-52
2024/02/21 03:34:21;;;;;;;;;15.25;15.25;;;;;15.01;100.00;101624.88;2111292;27;46290;-53
2024/02/21 03:35:21;;;;;;;;;12.00;10.67;;;;;15.04;100.00;101625.69;2111886;27;45751;-51
2024/02/21 03:36:21;;;;;;;;;14.00;14.00;;;;;14.92;100.00;101622.41;2110135;27;45646;-48
2024/02/21 03:37:22;;;;;;;;;17.00;15.67;;;;;14.98;100.00;101624.03;2110526;27;46541;-49
2024/02/21 03:38:22;;;;;;;;;14.33;14.33;;;;;15.06;100.00;101615.84;2111485;27;46359;-53
2024/02/21 03:39:22;;;;;;;;;15.67;14.00;;;;;15.00;100.00;101623.13;2111714;27;47161;-52
2024/02/21 03:40:23;;;;;;;;;15.00;14.00;;;;;14.97;100.00;101620.50;2111613;27;46937;-48
2024/02/21 03:41:23;;;;;;;;;13.67;13.67;;;;;14.93;100.00;101609.94;2111430;27;46394;-51
2024/02/21 03:42:23;;;;;;;;;15.00;15.00;;;;;14.81;100.00;101607.56;2111637;27;46907;-50
2024/02/21 03:43:24;;;;;;;;;15.33;13.33;;;;;14.84;100.00;101599.47;2111676;27;46316;-52
2024/02/21 03:44:24;;;;;;;;;12.67;12.67;;;;;14.72;100.00;101606.00;2110994;27;46737;-52
2024/02/21 03:45:24;;;;;;;;;16.00;16.00;;;;;14.65;100.00;101597.25;2111966;27;46601;-52
2024/02/21 03:46:25;;;;;;;;;15.33;15.00;;;;;14.80;100.00;101612.03;2101459;28;46811;-51
2024/02/21 03:47:25;;;;;;;;;15.67;15.00;;;;;14.72;100.00;101609.53;2101474;28;46172;-51
2024/02/21 03:48:26;;;;;;;;;12.67;12.67;;;;;14.77;100.00;101616.59;2111656;27;46854;-52
2024/02/21 03:49:26;;;;;;;;;12.00;12.00;;;;;14.76;100.00;101617.50;2110789;27;46529;-50
2024/02/21 03:50:27;;;;;;;;;15.67;13.00;;;;;14.80;100.00;101627.19;2112047;27;46505;-49
2024/02/21 03:51:27;;;;;;;;;10.50;10.00;;;;;14.79;100.00;101629.00;2111807;27;46413;-47
2024/02/21 03:52:28;;;;;;;;;15.00;15.00;;;;;14.92;100.00;101619.75;2110727;27;46746;-48
2024/02/21 03:53:28;;;;;;;;;16.00;14.33;;;;;15.09;100.00;101616.63;2109708;27;46489;-52
2024/02/21 03:54:28;;;;;;;;;14.33;13.33;;;;;15.10;100.00;101621.06;2107068;27;46882;-49
2024/02/21 03:55:29;;;;;;;;;14.67;12.33;;;;;15.09;100.00;101619.31;2111825;27;46207;-50
2024/02/21 03:56:29;;;;;;;;;16.00;15.67;;;;;15.11;100.00;101613.91;2112017;27;46269;-51
2024/02/21 03:57:29;;;;;;;;;14.67;14.67;;;;;15.05;100.00;101616.75;2110544;27;47214;-50
2024/02/21 03:58:30;;;;;;;;;10.67;10.67;;;;;15.11;100.00;101624.59;2110900;27;47054;-49
2024/02/21 03:59:31;;;;;;;;;14.25;14.25;;;;;15.11;100.00;101629.94;2111387;27;46332;-49
2024/02/21 04:00:31;;;;;;;;;17.00;14.00;;;;;15.13;100.00;101621.00;2111011;27;46668;-49
2024/02/21 04:01:31;;;;;;;;;14.00;14.00;;;;;15.13;100.00;101618.34;2111757;27;47252;-49
2024/02/21 04:02:31;;;;;;;;;14.00;14.00;;;;;15.08;100.00;101622.03;2089772;28;46861;-50
2024/02/21 04:03:32;;;;;;;;;14.33;14.00;;;;;15.05;100.00;101622.97;2089418;28;46762;-51
2024/02/21 04:04:32;;;;;;;;;14.33;11.33;;;;;15.10;100.00;101618.38;2111430;27;46484;-52
2024/02/21 04:05:33;;;;;;;;;16.67;15.33;;;;;15.05;100.00;101614.09;2111314;27;46663;-51
2024/02/21 04:06:33;;;;;;;;;13.00;12.67;;;;;15.00;100.00;101616.88;2111759;27;46418;-52
2024/02/21 04:07:33;;;;;;;;;13.33;13.33;;;;;15.08;100.00;101619.34;2109825;27;46151;-51
2024/02/21 04:08:34;;;;;;;;;13.67;13.67;;;;;15.01;100.00;101622.19;2108931;27;46760;-50
2024/02/21 04:09:34;;;;;;;;;12.00;12.00;;;;;14.99;100.00;101621.38;2109840;27;46617;-51
2024/02/21 04:10:35;;;;;;;;;12.00;12.00;;;;;15.02;100.00;101615.94;2111634;27;46877;-49
2024/02/21 04:11:35;;;;;;;;;13.33;12.00;;;;;15.02;100.00;101610.59;2112273;27;46230;-53
2024/02/21 04:12:35;;;;;;;;;13.00;12.00;;;;;15.02;100.00;101604.34;2113438;27;46329;-51
2024/02/21 04:13:36;;;;;;;;;16.00;14.67;;;;;15.02;100.00;101613.25;2112738;27;46470;-52
2024/02/21 04:14:36;;;;;;;;;14.67;13.67;;;;;15.01;100.00;101607.94;2112653;27;46665;-53
2024/02/21 04:15:36;;;;;;;;;16.00;16.00;;;;;14.98;100.00;101618.69;2113435;27;46316;-49
2024/02/21 04:16:37;;;;;;;;;8.00;8.00;;;;;15.07;100.00;101613.13;2112266;27;46456;-52
2024/02/21 04:17:38;;;;;;;;;13.67;13.67;;;;;15.11;100.00;101616.59;2113138;27;46955;-51
2024/02/21 04:18:39;;;;;;;;;15.00;14.00;;;;;15.09;100.00;101615.75;2112420;27;46450;-50
2024/02/21 04:19:40;;;;;;;;;13.75;13.50;;;;;15.08;100.00;101614.00;2112225;27;46372;-50
2024/02/21 04:20:40;;;;;;;;;15.00;12.00;;;;;15.06;100.00;101613.16;2113086;27;46267;-52
2024/02/21 04:21:40;;;;;;;;;15.00;15.00;;;;;15.03;100.00;101600.75;2112763;27;46570;-52
2024/02/21 04:22:43;;;;;;;;;16.00;15.33;;;;;15.01;100.00;101600.81;2113277;27;46505;-53
2024/02/21 04:23:44;;;;;;;;;16.00;13.75;;;;;14.98;100.00;101595.50;2112928;27;46628;-51
2024/02/21 04:24:44;;;;;;;;;12.67;12.67;;;;;15.01;100.00;101591.91;2112395;27;46731;-50
2024/02/21 04:25:44;;;;;;;;;14.67;14.67;;;;;15.00;100.00;101599.06;2111115;27;46343;-51
2024/02/21 04:26:45;;;;;;;;;15.00;15.00;;;;;15.00;100.00;101598.19;2112655;27;46784;-52
2024/02/21 04:27:45;;;;;;;;;16.67;14.00;;;;;15.04;100.00;101599.84;2112943;27;46172;-52
2024/02/21 04:28:46;;;;;;;;;12.67;12.67;;;;;14.97;100.00;101600.91;2112926;27;46305;-51
2024/02/21 04:29:46;;;;;;;;;18.33;16.00;;;;;14.97;100.00;101583.06;2112760;27;46377;-53
2024/02/21 04:30:46;;;;;;;;;14.67;14.00;;;;;14.97;100.00;101575.06;2109325;27;46295;-52
2024/02/21 04:31:47;;;;;;;;;14.00;14.00;;;;;14.97;100.00;101572.38;2112862;27;46484;-51
2024/02/21 04:32:47;;;;;;;;;14.33;14.00;;;;;14.98;100.00;101567.91;2112789;27;46306;-52